Time;durP1;ratioP1;P1;durP2;ratioP2;P2;SDS_P1;SDS_P2;PMS_P1;PMS_P2;Temp;Humidity;BMP_temperature;BMP_pressure;BME280_temperature;BME280_humidity;BME280_pressure;Samples;Min_cycle;Max_cycle;Signal;HPM_P1;HPM_P2
2022/01/10 00:01:08;;;;;;;10.15;4.63;;;;;7.50;100828.00;;;;5015834;28;20223;-80
2022/01/10 00:03:36;;;;;;;14.30;5.13;;;;;7.50;100831.00;;;;5022104;28;20193;-79
2022/01/10 00:06:03;;;;;;;8.30;4.22;;;;;7.50;100839.00;;;;5012583;28;20197;-79
2022/01/10 00:08:31;;;;;;;12.63;4.57;;;;;7.50;100852.00;;;;5017837;28;20213;-79
2022/01/10 00:10:58;;;;;;;10.13;3.83;;;;;7.50;100857.00;;;;5011491;28;20897;-79
2022/01/10 00:13:27;;;;;;;11.10;3.72;;;;;7.50;100860.00;;;;5027610;28;20192;-80
2022/01/10 00:15:54;;;;;;;8.07;4.10;;;;;7.50;100864.00;;;;5025114;28;20666;-80
2022/01/10 00:18:21;;;;;;;6.28;4.03;;;;;7.40;100869.00;;;;5025098;28;20256;-79
2022/01/10 00:20:49;;;;;;;10.20;4.45;;;;;7.40;100872.00;;;;5028155;28;20189;-80
2022/01/10 00:23:16;;;;;;;6.53;3.95;;;;;7.40;100871.00;;;;5027584;28;20254;-79
2022/01/10 00:25:43;;;;;;;6.47;3.60;;;;;7.40;100878.00;;;;5024797;28;20659;-79
2022/01/10 00:28:10;;;;;;;9.75;4.43;;;;;7.40;100883.00;;;;5022506;28;20196;-79
2022/01/10 00:30:39;;;;;;;6.07;3.90;;;;;7.40;100878.00;;;;5018903;28;20199;-79
2022/01/10 00:33:06;;;;;;;7.45;4.90;;;;;7.40;100876.00;;;;5027684;28;20200;-79
2022/01/10 00:35:33;;;;;;;7.82;3.67;;;;;7.40;100884.00;;;;5019805;28;20197;-79
2022/01/10 00:38:01;;;;;;;7.78;4.05;;;;;7.40;100886.00;;;;5011661;28;20689;-79
2022/01/10 00:40:28;;;;;;;11.45;4.68;;;;;7.40;100884.00;;;;5028038;28;20188;-79
2022/01/10 00:42:56;;;;;;;6.53;4.30;;;;;7.40;100884.00;;;;5019033;28;20259;-79
2022/01/10 00:45:26;;;;;;;5.57;3.80;;;;;7.40;100890.00;;;;5018678;28;20197;-79
2022/01/10 00:47:55;;;;;;;6.32;4.43;;;;;7.30;100899.00;;;;5021453;28;20200;-80
2022/01/10 00:50:25;;;;;;;7.28;3.90;;;;;7.40;100901.00;;;;5009362;28;20576;-79
2022/01/10 00:52:53;;;;;;;6.82;3.72;;;;;7.30;100904.00;;;;5024259;28;20235;-80
2022/01/10 00:55:20;;;;;;;7.72;3.97;;;;;7.30;100912.00;;;;5016047;28;20204;-79
2022/01/10 00:57:47;;;;;;;8.20;3.88;;;;;7.30;100915.00;;;;5027972;28;20228;-79
2022/01/10 01:00:17;;;;;;;8.52;4.75;;;;;7.30;100933.00;;;;5022345;28;20200;-79
2022/01/10 01:02:45;;;;;;;7.65;3.78;;;;;7.30;100932.00;;;;5020930;28;20203;-79
2022/01/10 01:05:17;;;;;;;6.70;3.63;;;;;7.30;100932.00;;;;5015066;28;20203;-79
2022/01/10 01:07:44;;;;;;;7.10;3.97;;;;;7.30;100934.00;;;;5023790;28;20226;-80
2022/01/10 01:10:41;;;;;;;7.15;3.90;;;;;7.30;100930.00;;;;5024239;28;20192;-80
2022/01/10 01:13:24;;;;;;;8.82;3.80;;;;;7.30;100942.00;;;;5025818;28;20222;-79
2022/01/10 01:16:09;;;;;;;7.40;3.78;;;;;7.30;100946.00;;;;5017222;28;20200;-79
2022/01/10 01:24:19;;;;;;;7.20;4.07;;;;;7.20;100960.00;;;;5008848;28;20290;-79
2022/01/10 01:26:49;;;;;;;7.30;3.50;;;;;7.20;100961.00;;;;5025333;28;20204;-79
2022/01/10 01:29:18;;;;;;;7.68;3.47;;;;;7.20;100962.00;;;;5023755;28;20196;-79
2022/01/10 01:31:45;;;;;;;6.47;3.85;;;;;7.20;100957.00;;;;5008674;28;20212;-79
2022/01/10 01:34:15;;;;;;;8.63;4.00;;;;;7.20;100965.00;;;;5026393;28;20196;-79
2022/01/10 01:36:46;;;;;;;6.70;3.78;;;;;7.20;100974.00;;;;5022465;28;20201;-79
2022/01/10 01:39:19;;;;;;;5.25;3.35;;;;;7.20;100982.00;;;;5016216;28;20221;-79
2022/01/10 01:41:48;;;;;;;5.38;3.85;;;;;7.20;100995.00;;;;5012079;28;20319;-79
2022/01/10 01:44:15;;;;;;;7.93;4.50;;;;;7.20;100988.00;;;;5011949;28;20200;-79
2022/01/10 01:46:43;;;;;;;8.52;4.00;;;;;7.20;100997.00;;;;5027007;28;20193;-79
2022/01/10 01:49:11;;;;;;;8.40;4.10;;;;;7.20;100992.00;;;;5029928;28;20201;-79
2022/01/10 01:51:39;;;;;;;6.20;4.13;;;;;7.10;100994.00;;;;5027893;28;20201;-79
2022/01/10 01:54:09;;;;;;;6.13;4.03;;;;;7.10;100999.00;;;;5029798;28;20196;-80
2022/01/10 01:56:37;;;;;;;5.50;3.75;;;;;7.10;101000.00;;;;5015843;28;20279;-79
2022/01/10 01:59:05;;;;;;;9.10;4.25;;;;;7.20;101007.00;;;;5022192;28;20236;-79
2022/01/10 02:01:33;;;;;;;9.00;4.78;;;;;7.10;101007.00;;;;5025095;28;20205;-80
2022/01/10 02:04:00;;;;;;;8.43;5.00;;;;;7.10;101009.00;;;;5025019;28;20201;-79
2022/01/10 02:06:27;;;;;;;9.60;5.35;;;;;7.10;101009.00;;;;5029418;28;20658;-79
2022/01/10 02:08:55;;;;;;;8.00;4.30;;;;;7.10;101019.00;;;;5020635;28;20223;-79
2022/01/10 02:11:23;;;;;;;5.78;3.78;;;;;7.10;101024.00;;;;5017725;28;20189;-80
2022/01/10 02:13:50;;;;;;;5.90;4.25;;;;;7.10;101016.00;;;;5028247;28;20196;-80
2022/01/10 02:16:22;;;;;;;7.03;4.50;;;;;7.10;101028.00;;;;5023121;28;20207;-79
2022/01/10 02:18:50;;;;;;;7.13;4.30;;;;;7.10;101026.00;;;;5014498;28;20318;-79
2022/01/10 02:21:18;;;;;;;8.07;3.90;;;;;7.10;101039.00;;;;5017975;28;20193;-80
2022/01/10 02:23:46;;;;;;;8.77;4.43;;;;;7.10;101049.00;;;;5024754;28;20192;-79
2022/01/10 02:26:15;;;;;;;7.47;3.92;;;;;7.00;101052.00;;;;5021131;28;20223;-79
2022/01/10 02:28:42;;;;;;;6.97;4.55;;;;;7.00;101049.00;;;;5015033;28;20204;-79
2022/01/10 02:31:10;;;;;;;7.95;3.90;;;;;7.00;101061.00;;;;5014664;28;20201;-79
2022/01/10 02:33:37;;;;;;;5.28;3.78;;;;;7.00;101076.00;;;;5023711;28;20196;-79
2022/01/10 02:36:14;;;;;;;6.90;4.28;;;;;7.10;101076.00;;;;5029632;28;20201;-79
2022/01/10 02:38:49;;;;;;;5.28;3.58;;;;;7.00;101079.00;;;;5017858;28;20702;-79
2022/01/10 02:41:30;;;;;;;9.90;4.13;;;;;7.00;101088.00;;;;5014261;28;20212;-79
2022/01/10 02:43:59;;;;;;;7.97;4.20;;;;;7.10;101091.00;;;;5019340;28;20192;-79
2022/01/10 02:46:27;;;;;;;7.13;4.30;;;;;7.10;101094.00;;;;5028586;28;20211;-79
2022/01/10 02:48:55;;;;;;;10.23;4.50;;;;;7.10;101107.00;;;;5020401;28;20209;-79
2022/01/10 02:51:24;;;;;;;7.53;4.50;;;;;7.10;101103.00;;;;5010206;28;20201;-80
2022/01/10 02:53:52;;;;;;;7.68;4.78;;;;;7.10;101113.00;;;;5022037;28;20196;-79
2022/01/10 02:56:20;;;;;;;9.63;4.75;;;;;7.20;101119.00;;;;5010472;28;20209;-79
2022/01/10 02:58:47;;;;;;;8.75;4.63;;;;;7.20;101112.00;;;;5016469;28;20224;-79
2022/01/10 03:01:14;;;;;;;8.75;4.18;;;;;7.20;101120.00;;;;5017780;28;20196;-79
2022/01/10 03:03:42;;;;;;;7.00;4.40;;;;;7.20;101127.00;;;;5027760;28;20705;-79
2022/01/10 03:06:09;;;;;;;10.93;4.88;;;;;7.20;101135.00;;;;5015539;28;20201;-79
2022/01/10 03:08:36;;;;;;;5.60;3.90;;;;;7.30;101130.00;;;;5018112;28;20220;-79
2022/01/10 03:11:05;;;;;;;8.15;4.22;;;;;7.30;101141.00;;;;5009291;28;20209;-79
2022/01/10 03:13:32;;;;;;;7.80;4.53;;;;;7.30;101146.00;;;;5014669;28;20200;-79
2022/01/10 03:15:59;;;;;;;8.30;4.00;;;;;7.40;101146.00;;;;5019950;28;20289;-79
2022/01/10 03:18:27;;;;;;;7.60;4.10;;;;;7.40;101146.00;;;;5016578;28;20224;-80
2022/01/10 03:20:54;;;;;;;5.82;4.00;;;;;7.40;101143.00;;;;5013292;28;20227;-79
2022/01/10 03:23:21;;;;;;;6.78;3.78;;;;;7.40;101150.00;;;;5021587;28;20243;-79
2022/01/10 03:25:48;;;;;;;9.50;4.78;;;;;7.50;101144.00;;;;5026032;28;20199;-79
2022/01/10 03:28:17;;;;;;;6.22;4.10;;;;;7.50;101149.00;;;;5021227;28;20239;-79
2022/01/10 03:30:44;;;;;;;6.03;4.68;;;;;7.50;101165.00;;;;5022045;28;20204;-79
2022/01/10 03:33:11;;;;;;;7.45;4.57;;;;;7.50;101165.00;;;;5020723;28;20200;-79
2022/01/10 03:35:39;;;;;;;6.78;4.18;;;;;7.50;101183.00;;;;5020286;28;20201;-79
2022/01/10 03:38:06;;;;;;;8.20;4.57;;;;;7.60;101184.00;;;;5020094;28;20204;-79
2022/01/10 03:40:34;;;;;;;7.03;4.38;;;;;7.60;101177.00;;;;5009496;28;20224;-79
2022/01/10 03:43:01;;;;;;;6.65;3.95;;;;;7.50;101182.00;;;;5010043;28;20205;-79
2022/01/10 03:45:30;;;;;;;5.15;3.88;;;;;7.60;101191.00;;;;5009841;28;20216;-79
2022/01/10 03:47:57;;;;;;;6.85;4.68;;;;;7.60;101192.00;;;;5015984;28;20205;-79
2022/01/10 03:50:24;;;;;;;7.07;4.40;;;;;7.50;101195.00;;;;5013168;28;20667;-79
2022/01/10 03:52:51;;;;;;;5.10;3.50;;;;;7.50;101207.00;;;;5014344;28;20189;-79
2022/01/10 03:55:19;;;;;;;8.40;3.95;;;;;7.50;101207.00;;;;5017414;28;20561;-79
2022/01/10 03:57:46;;;;;;;7.72;4.22;;;;;7.50;101209.00;;;;5018340;28;20186;-79
2022/01/10 04:00:14;;;;;;;4.47;3.60;;;;;7.50;101201.00;;;;5010015;28;20225;-79
2022/01/10 04:02:47;;;;;;;9.27;4.40;;;;;7.50;101207.00;;;;5020897;28;20243;-79
2022/01/10 04:05:15;;;;;;;7.22;4.05;;;;;7.50;101212.00;;;;5013794;28;20737;-79
2022/01/10 04:07:42;;;;;;;8.50;4.70;;;;;7.50;101217.00;;;;5024678;28;20251;-79
2022/01/10 04:10:10;;;;;;;7.85;4.63;;;;;7.50;101226.00;;;;5013616;28;20201;-79
2022/01/10 04:12:38;;;;;;;8.43;4.63;;;;;7.50;101225.00;;;;5009299;28;20204;-79
2022/01/10 04:15:06;;;;;;;9.25;4.32;;;;;7.40;101230.00;;;;5015716;28;20212;-79
2022/01/10 04:17:33;;;;;;;7.55;3.88;;;;;7.40;101231.00;;;;5012662;28;20243;-79
2022/01/10 04:20:02;;;;;;;7.35;4.20;;;;;7.40;101244.00;;;;5008163;28;20719;-79
2022/01/10 04:22:30;;;;;;;6.90;3.95;;;;;7.50;101250.00;;;;5013599;28;20216;-79
2022/01/10 04:24:57;;;;;;;5.78;3.95;;;;;7.50;101247.00;;;;5022479;28;20207;-79
2022/01/10 04:27:24;;;;;;;7.35;4.78;;;;;7.50;101253.00;;;;5023110;28;20219;-79
2022/01/10 04:29:52;;;;;;;6.00;4.40;;;;;7.50;101264.00;;;;5009438;28;20358;-79
2022/01/10 04:32:19;;;;;;;7.57;3.80;;;;;7.50;101262.00;;;;5011375;28;20192;-79
2022/01/10 04:34:48;;;;;;;7.00;4.47;;;;;7.50;101269.00;;;;5020131;28;20205;-80
2022/01/10 04:37:16;;;;;;;7.72;4.20;;;;;7.50;101270.00;;;;5010201;28;20201;-79
2022/01/10 04:39:43;;;;;;;7.10;4.35;;;;;7.60;101273.00;;;;5015417;28;20221;-80
2022/01/10 04:42:11;;;;;;;6.72;4.20;;;;;7.60;101282.00;;;;5028370;28;20196;-79
2022/01/10 04:44:40;;;;;;;7.20;4.22;;;;;7.60;101290.00;;;;5012013;28;20200;-80
2022/01/10 04:47:07;;;;;;;5.78;3.92;;;;;7.70;101286.00;;;;5018185;28;20293;-79
2022/01/10 04:49:54;;;;;;;8.98;4.95;;;;;7.70;101286.00;;;;5019045;28;20203;-79
2022/01/10 04:52:23;;;;;;;8.30;4.43;;;;;7.80;101309.00;;;;5022290;28;20200;-79
2022/01/10 04:54:51;;;;;;;6.68;4.22;;;;;7.80;101310.00;;;;5021933;28;20208;-80
2022/01/10 04:57:18;;;;;;;5.57;4.30;;;;;7.80;101309.00;;;;5022444;28;20208;-79
2022/01/10 04:59:45;;;;;;;7.40;4.30;;;;;7.90;101319.00;;;;5009482;28;20707;-79
2022/01/10 05:02:12;;;;;;;6.40;5.00;;;;;7.90;101326.00;;;;5010769;28;20203;-79
2022/01/10 05:04:40;;;;;;;6.82;4.43;;;;;7.90;101321.00;;;;5007827;28;20204;-79
2022/01/10 05:07:07;;;;;;;6.60;4.80;;;;;8.00;101327.00;;;;5011818;28;20209;-79
2022/01/10 05:09:36;;;;;;;10.68;5.38;;;;;8.00;101347.00;;;;5009703;28;20639;-79
2022/01/10 05:12:04;;;;;;;7.30;4.90;;;;;8.00;101348.00;;;;5013072;28;21342;-79
2022/01/10 05:14:32;;;;;;;8.10;5.68;;;;;8.00;101362.00;;;;5030185;28;20219;-79
2022/01/10 05:17:00;;;;;;;6.88;4.68;;;;;8.10;101369.00;;;;5028639;28;20672;-79
2022/01/10 05:19:27;;;;;;;10.23;4.40;;;;;8.10;101352.00;;;;5013160;28;20228;-79
2022/01/10 05:21:54;;;;;;;6.88;4.72;;;;;8.10;101356.00;;;;5013775;28;20201;-80
2022/01/10 05:24:21;;;;;;;5.55;4.30;;;;;8.20;101371.00;;;;5023403;28;20200;-79
2022/01/10 05:26:50;;;;;;;10.13;5.13;;;;;8.20;101369.00;;;;5031167;28;20196;-79
2022/01/10 05:29:18;;;;;;;7.03;5.13;;;;;8.20;101373.00;;;;5026681;28;20212;-80
2022/01/10 05:31:46;;;;;;;7.70;5.13;;;;;8.30;101384.00;;;;5023139;28;20204;-79
2022/01/10 05:34:13;;;;;;;8.23;4.88;;;;;8.30;101384.00;;;;5024776;28;20197;-80
2022/01/10 05:36:40;;;;;;;8.15;4.85;;;;;8.30;101394.00;;;;5025133;28;20205;-79
2022/01/10 05:39:08;;;;;;;7.03;5.18;;;;;8.40;101395.00;;;;5016356;28;20205;-79
2022/01/10 05:41:35;;;;;;;6.38;4.70;;;;;8.40;101401.00;;;;5011817;28;20289;-78
2022/01/10 05:44:04;;;;;;;6.28;5.22;;;;;8.40;101402.00;;;;5015398;28;20204;-79
2022/01/10 05:46:34;;;;;;;7.20;4.97;;;;;8.40;101413.00;;;;5025271;28;20196;-78
2022/01/10 05:49:02;;;;;;;10.25;5.18;;;;;8.50;101418.00;;;;5018239;28;20189;-79
2022/01/10 05:51:34;;;;;;;10.13;6.10;;;;;8.50;101404.00;;;;5024953;28;20315;-79
2022/01/10 05:54:02;;;;;;;6.47;4.70;;;;;8.50;101422.00;;;;5015177;28;20263;-79
2022/01/10 05:56:29;;;;;;;8.27;5.07;;;;;8.50;101417.00;;;;5024914;28;20203;-80
2022/01/10 05:58:56;;;;;;;7.40;5.13;;;;;8.60;101417.00;;;;5016694;28;20208;-80
2022/01/10 06:01:25;;;;;;;7.57;4.80;;;;;8.60;101428.00;;;;5026179;28;20227;-80
2022/01/10 06:03:52;;;;;;;9.35;5.57;;;;;8.60;101428.00;;;;5018011;28;20217;-80
2022/01/10 06:06:19;;;;;;;8.63;5.82;;;;;8.60;101423.00;;;;5021486;28;20679;-79
2022/01/10 06:08:47;;;;;;;8.60;5.97;;;;;8.70;101433.00;;;;5020403;28;20219;-79
2022/01/10 06:11:14;;;;;;;8.27;5.88;;;;;8.70;101440.00;;;;5028720;28;20203;-79
2022/01/10 06:13:42;;;;;;;9.23;6.07;;;;;8.70;101450.00;;;;5027672;28;20320;-79
2022/01/10 06:16:09;;;;;;;7.30;5.18;;;;;8.70;101457.00;;;;5011943;28;20198;-80
2022/01/10 06:18:37;;;;;;;7.47;5.18;;;;;8.70;101466.00;;;;5018579;28;20224;-79
2022/01/10 06:21:05;;;;;;;7.90;5.28;;;;;8.80;101471.00;;;;5021906;28;20220;-80
2022/01/10 06:23:33;;;;;;;6.57;5.05;;;;;8.80;101470.00;;;;5017997;28;20200;-80
2022/01/10 06:26:03;;;;;;;8.05;5.90;;;;;8.80;101483.00;;;;5021315;28;20209;-80
2022/01/10 06:28:31;;;;;;;6.13;5.15;;;;;8.90;101492.00;;;;5029067;28;20211;-79
2022/01/10 06:30:58;;;;;;;7.70;4.90;;;;;8.90;101504.00;;;;5027466;28;20733;-80
2022/01/10 06:33:25;;;;;;;12.38;6.15;;;;;8.90;101495.00;;;;5011080;28;20200;-78
2022/01/10 06:35:54;;;;;;;9.75;5.85;;;;;8.90;101505.00;;;;5019998;28;20206;-79
2022/01/10 06:38:21;;;;;;;8.32;6.10;;;;;8.90;101511.00;;;;5011851;28;20193;-78
2022/01/10 06:40:48;;;;;;;8.23;5.72;;;;;8.90;101506.00;;;;5021553;28;20246;-79
2022/01/10 06:43:15;;;;;;;10.88;5.70;;;;;9.00;101515.00;;;;5030273;28;20192;-78
2022/01/10 06:45:43;;;;;;;8.88;5.32;;;;;9.00;101517.00;;;;5025541;28;20197;-79
2022/01/10 06:48:10;;;;;;;9.02;5.55;;;;;9.00;101528.00;;;;5030778;28;20200;-79
2022/01/10 06:50:38;;;;;;;7.20;5.25;;;;;9.00;101531.00;;;;5030403;28;20215;-78
2022/01/10 06:53:07;;;;;;;6.85;5.55;;;;;9.00;101538.00;;;;5014487;28;20682;-78
2022/01/10 06:55:34;;;;;;;10.27;5.68;;;;;9.00;101534.00;;;;5015115;28;20244;-78
2022/01/10 06:58:02;;;;;;;7.80;5.38;;;;;9.00;101545.00;;;;5027558;28;20689;-79
2022/01/10 07:00:29;;;;;;;7.22;6.20;;;;;9.10;101554.00;;;;5022973;28;20220;-80
2022/01/10 07:02:56;;;;;;;8.88;5.43;;;;;9.10;101559.00;;;;5023612;28;20196;-80
2022/01/10 07:05:24;;;;;;;8.65;5.32;;;;;9.10;101558.00;;;;5019072;28;20197;-79
2022/01/10 07:07:51;;;;;;;11.77;5.65;;;;;9.10;101565.00;;;;5029918;28;20795;-79
2022/01/10 07:10:19;;;;;;;10.43;5.47;;;;;9.10;101572.00;;;;5013167;28;20208;-79
2022/01/10 07:12:47;;;;;;;6.43;4.75;;;;;9.10;101576.00;;;;5010420;28;20204;-79
2022/01/10 07:15:14;;;;;;;7.72;5.45;;;;;9.10;101589.00;;;;5015143;28;20722;-78
2022/01/10 07:17:42;;;;;;;7.72;5.43;;;;;9.20;101597.00;;;;5009063;28;20651;-80
2022/01/10 07:20:10;;;;;;;8.55;5.18;;;;;9.20;101589.00;;;;5026194;28;20693;-80
2022/01/10 07:22:38;;;;;;;9.25;5.90;;;;;9.20;101595.00;;;;5029607;28;20709;-80
2022/01/10 07:25:05;;;;;;;8.57;6.63;;;;;9.20;101605.00;;;;5014160;28;20262;-80
2022/01/10 07:27:34;;;;;;;8.13;6.07;;;;;9.20;101614.00;;;;5010851;28;20659;-79
2022/01/10 07:30:04;;;;;;;7.97;6.43;;;;;9.20;101617.00;;;;5022537;28;20389;-80
2022/01/10 07:32:31;;;;;;;6.35;5.15;;;;;9.20;101615.00;;;;5009157;28;20733;-80
2022/01/10 07:34:59;;;;;;;9.02;6.10;;;;;9.20;101620.00;;;;5009626;28;20697;-80
2022/01/10 07:37:26;;;;;;;11.45;7.22;;;;;9.30;101624.00;;;;5010081;28;20228;-81
2022/01/10 07:39:53;;;;;;;10.80;6.30;;;;;9.30;101631.00;;;;5014341;28;20224;-81
2022/01/10 07:42:21;;;;;;;9.52;6.05;;;;;9.30;101630.00;;;;5016408;28;20196;-79
2022/01/10 07:44:49;;;;;;;6.80;5.57;;;;;9.30;101630.00;;;;5011674;28;20232;-80
2022/01/10 07:47:17;;;;;;;8.10;6.13;;;;;9.20;101637.00;;;;5024012;28;20221;-78
2022/01/10 07:49:44;;;;;;;10.88;6.28;;;;;9.20;101643.00;;;;5020153;28;20204;-80
2022/01/10 07:52:11;;;;;;;9.18;5.93;;;;;9.20;101661.00;;;;5019887;28;20204;-80
2022/01/10 07:54:39;;;;;;;10.25;6.95;;;;;9.20;101659.00;;;;5016007;28;20201;-79
2022/01/10 07:57:06;;;;;;;11.60;6.55;;;;;9.20;101662.00;;;;5018964;28;20251;-79
2022/01/10 07:59:33;;;;;;;9.68;6.40;;;;;9.10;101665.00;;;;5009819;28;20196;-79
2022/01/10 08:02:02;;;;;;;9.18;6.57;;;;;9.10;101673.00;;;;5014005;28;20238;-79
2022/01/10 08:04:30;;;;;;;8.32;6.13;;;;;9.10;101678.00;;;;5021596;28;20292;-79
2022/01/10 08:06:57;;;;;;;9.57;6.20;;;;;9.10;101677.00;;;;5009922;28;20196;-79
2022/01/10 08:09:25;;;;;;;9.52;5.65;;;;;9.10;101690.00;;;;5014803;28;20212;-79
2022/01/10 08:11:53;;;;;;;7.68;5.85;;;;;9.10;101686.00;;;;5018712;28;20216;-79
2022/01/10 08:14:21;;;;;;;9.27;6.32;;;;;9.10;101695.00;;;;5009603;28;20197;-79
2022/01/10 08:16:48;;;;;;;11.27;5.93;;;;;9.10;101699.00;;;;5011972;28;20189;-79
2022/01/10 08:19:17;;;;;;;9.23;6.47;;;;;9.10;101706.00;;;;5009798;28;20758;-80
2022/01/10 08:21:44;;;;;;;9.32;6.20;;;;;9.10;101713.00;;;;5011589;28;20234;-79
2022/01/10 08:24:11;;;;;;;9.90;5.88;;;;;9.10;101719.00;;;;5008719;28;20205;-79
2022/01/10 08:26:40;;;;;;;7.65;5.55;;;;;9.10;101723.00;;;;5011019;28;20223;-80
2022/01/10 08:29:07;;;;;;;8.40;5.65;;;;;9.10;101729.00;;;;5015138;28;20196;-80
2022/01/10 08:31:35;;;;;;;7.90;5.88;;;;;9.20;101734.00;;;;5013285;28;20243;-80
2022/01/10 08:34:04;;;;;;;8.52;6.40;;;;;9.20;101740.00;;;;5010676;28;20212;-80
2022/01/10 08:36:32;;;;;;;11.48;6.72;;;;;9.20;101751.00;;;;5020288;28;20200;-80
2022/01/10 08:39:00;;;;;;;10.88;6.25;;;;;9.20;101756.00;;;;5022080;28;20267;-81
2022/01/10 08:41:27;;;;;;;9.30;6.30;;;;;9.30;101766.00;;;;5009803;28;20225;-81
2022/01/10 08:43:57;;;;;;;10.45;6.38;;;;;9.30;101770.00;;;;5013695;28;20196;-81
2022/01/10 08:46:25;;;;;;;7.65;5.65;;;;;9.30;101769.00;;;;5008787;28;20658;-78
2022/01/10 08:48:53;;;;;;;8.07;6.40;;;;;9.40;101779.00;;;;5018353;28;20200;-79
2022/01/10 08:51:20;;;;;;;9.10;6.63;;;;;9.40;101777.00;;;;5015727;28;20205;-79
2022/01/10 08:53:49;;;;;;;11.35;7.32;;;;;9.40;101785.00;;;;5007798;28;20219;-78
2022/01/10 08:56:16;;;;;;;10.60;7.60;;;;;9.50;101794.00;;;;5014696;28;20196;-80
2022/01/10 08:58:43;;;;;;;10.38;7.90;;;;;9.50;101793.00;;;;5013162;28;20201;-80
2022/01/10 09:01:11;;;;;;;11.23;7.45;;;;;9.50;101792.00;;;;5017402;28;20709;-80
2022/01/10 09:03:39;;;;;;;11.40;7.55;;;;;9.50;101799.00;;;;5018441;28;20209;-79
2022/01/10 09:06:06;;;;;;;13.95;7.78;;;;;9.60;101801.00;;;;5019551;28;20259;-81
2022/01/10 09:08:37;;;;;;;10.05;7.05;;;;;9.60;101799.00;;;;5018309;28;20216;-81
2022/01/10 09:11:06;;;;;;;10.40;7.07;;;;;9.60;101805.00;;;;5020747;28;20215;-81
2022/01/10 09:13:33;;;;;;;8.68;6.80;;;;;9.70;101811.00;;;;5023323;28;20232;-81
2022/01/10 09:16:02;;;;;;;11.57;7.28;;;;;9.70;101813.00;;;;5021855;28;20211;-81
2022/01/10 09:18:30;;;;;;;13.70;7.68;;;;;9.70;101815.00;;;;5013871;28;20859;-81
2022/01/10 09:20:58;;;;;;;8.73;7.10;;;;;9.80;101818.00;;;;5021106;28;20228;-81
2022/01/10 09:23:26;;;;;;;14.10;7.80;;;;;9.80;101816.00;;;;5024936;28;20223;-82
2022/01/10 09:25:54;;;;;;;11.68;7.95;;;;;9.90;101821.00;;;;5021962;28;20197;-80
2022/01/10 09:28:23;;;;;;;11.20;7.40;;;;;9.90;101823.00;;;;5026624;28;20204;-81
2022/01/10 09:30:50;;;;;;;10.60;7.13;;;;;9.90;101822.00;;;;5016873;28;20208;-80
2022/01/10 09:33:18;;;;;;;13.15;8.10;;;;;10.00;101832.00;;;;5013868;28;20208;-79
2022/01/10 09:35:45;;;;;;;10.60;8.15;;;;;10.00;101841.00;;;;5014398;28;20216;-80
2022/01/10 09:38:12;;;;;;;13.48;8.02;;;;;10.00;101838.00;;;;5017256;28;20205;-81
2022/01/10 09:40:39;;;;;;;10.73;7.47;;;;;10.10;101837.00;;;;5015010;28;20216;-81
2022/01/10 09:43:07;;;;;;;12.20;7.80;;;;;10.10;101846.00;;;;5012699;28;20184;-80
2022/01/10 09:45:39;;;;;;;12.05;7.90;;;;;10.10;101851.00;;;;5017084;28;20223;-80
2022/01/10 09:48:07;;;;;;;9.93;7.00;;;;;10.10;101864.00;;;;5019605;28;20220;-80
2022/01/10 09:50:34;;;;;;;11.93;8.13;;;;;10.20;101879.00;;;;5022290;28;20652;-80
2022/01/10 09:53:01;;;;;;;12.48;8.38;;;;;10.20;101884.00;;;;5012523;28;20189;-81
2022/01/10 09:55:31;;;;;;;12.85;8.90;;;;;10.30;101886.00;;;;5020663;28;20200;-81
2022/01/10 09:57:59;;;;;;;12.43;7.70;;;;;10.30;101892.00;;;;5022580;28;20568;-80
2022/01/10 10:00:26;;;;;;;11.02;7.53;;;;;10.30;101906.00;;;;5028943;28;20655;-80
2022/01/10 10:02:55;;;;;;;12.30;8.38;;;;;10.40;101913.00;;;;5015815;28;20193;-80
2022/01/10 10:05:22;;;;;;;12.73;8.80;;;;;10.40;101917.00;;;;5017494;28;20196;-80
2022/01/10 10:07:52;;;;;;;13.98;7.88;;;;;10.50;101907.00;;;;5020734;28;20258;-80
2022/01/10 10:10:21;;;;;;;12.77;7.75;;;;;10.50;101920.00;;;;5023407;28;20664;-80
2022/01/10 10:12:50;;;;;;;12.20;8.48;;;;;10.50;101930.00;;;;5026676;28;20195;-80
2022/01/10 10:15:22;;;;;;;11.05;7.22;;;;;10.60;101924.00;;;;5028028;28;20204;-80
2022/01/10 10:17:50;;;;;;;12.80;8.57;;;;;10.70;101932.00;;;;5018619;28;20224;-81
2022/01/10 10:20:21;;;;;;;13.27;8.65;;;;;10.70;101939.00;;;;5020614;28;20205;-84
2022/01/10 10:22:50;;;;;;;14.50;8.65;;;;;10.70;101950.00;;;;5016752;28;20238;-83
2022/01/10 10:25:19;;;;;;;11.50;7.95;;;;;10.80;101950.00;;;;5023441;28;20247;-81
2022/01/10 10:27:48;;;;;;;12.68;7.53;;;;;10.80;101957.00;;;;5022360;28;20192;-80
2022/01/10 10:30:17;;;;;;;10.82;7.40;;;;;10.90;101958.00;;;;5024467;28;20212;-80
2022/01/10 10:32:44;;;;;;;14.27;8.63;;;;;10.90;101951.00;;;;5020759;28;20459;-81
2022/01/10 10:35:13;;;;;;;10.85;8.43;;;;;11.00;101952.00;;;;5028285;28;20200;-81
2022/01/10 10:37:43;;;;;;;10.60;7.57;;;;;11.00;101956.00;;;;5021131;28;20217;-81
2022/01/10 10:40:14;;;;;;;8.70;7.22;;;;;11.00;101958.00;;;;5016732;28;20207;-80
2022/01/10 10:42:45;;;;;;;11.15;8.15;;;;;11.10;101963.00;;;;5012930;28;20264;-80
2022/01/10 10:45:14;;;;;;;11.27;7.18;;;;;11.10;101974.00;;;;5020124;28;20208;-80
2022/01/10 10:47:44;;;;;;;9.70;7.63;;;;;11.20;101970.00;;;;5016170;28;20625;-80
2022/01/10 10:50:12;;;;;;;13.05;8.90;;;;;11.20;101982.00;;;;5023241;28;20211;-80
2022/01/10 10:52:42;;;;;;;12.63;8.30;;;;;11.20;101973.00;;;;5015944;28;20626;-81
2022/01/10 10:55:11;;;;;;;9.30;7.60;;;;;11.30;101983.00;;;;5018043;28;20207;-81
2022/01/10 10:57:39;;;;;;;10.82;8.00;;;;;11.30;101984.00;;;;5015518;28;20197;-80
2022/01/10 11:00:10;;;;;;;10.88;7.97;;;;;11.40;101979.00;;;;5007073;28;22011;-80
2022/01/10 11:02:37;;;;;;;13.25;8.70;;;;;11.40;101990.00;;;;5014601;28;20224;-79
2022/01/10 11:05:07;;;;;;;12.43;8.50;;;;;11.40;101985.00;;;;5015793;28;20208;-80
2022/01/10 11:07:35;;;;;;;13.13;8.32;;;;;11.50;101990.00;;;;5014164;28;20221;-79
2022/01/10 11:10:05;;;;;;;10.25;7.45;;;;;11.50;102000.00;;;;5021233;28;20200;-79
2022/01/10 11:12:35;;;;;;;12.15;7.93;;;;;11.60;102000.00;;;;5014312;28;20209;-80
2022/01/10 11:15:03;;;;;;;11.73;7.78;;;;;11.60;102012.00;;;;5021433;28;20197;-80
2022/01/10 11:17:31;;;;;;;12.98;8.02;;;;;11.60;102004.00;;;;5020292;28;20197;-80
2022/01/10 11:20:12;;;;;;;11.18;7.55;;;;;11.60;102016.00;;;;5014562;28;20229;-81
2022/01/10 11:22:41;;;;;;;14.23;9.02;;;;;11.70;102011.00;;;;5013095;28;20244;-80
2022/01/10 11:25:29;;;;;;;11.57;7.88;;;;;11.70;102016.00;;;;5009482;28;20200;-80
2022/01/10 11:27:58;;;;;;;11.85;7.95;;;;;11.80;102020.00;;;;5015480;28;20200;-80
2022/01/10 11:30:32;;;;;;;12.52;9.07;;;;;11.80;102031.00;;;;5011912;28;20196;-80
2022/01/10 11:33:04;;;;;;;12.30;7.63;;;;;11.90;102033.00;;;;5015922;28;20244;-81
2022/01/10 11:35:34;;;;;;;11.55;8.35;;;;;11.90;102029.00;;;;5021673;28;20251;-82
2022/01/10 11:38:15;;;;;;;15.27;8.05;;;;;11.90;102024.00;;;;5015434;28;20200;-80
2022/01/10 11:40:44;;;;;;;10.70;7.97;;;;;12.00;102029.00;;;;5009260;28;20200;-80
2022/01/10 11:43:29;;;;;;;11.50;8.20;;;;;11.90;102039.00;;;;5016789;28;20228;-81
2022/01/10 11:46:09;;;;;;;11.20;7.90;;;;;12.00;102038.00;;;;5010867;28;20201;-80
2022/01/10 11:48:45;;;;;;;10.85;7.30;;;;;12.00;102049.00;;;;5022428;28;20562;-82
2022/01/10 11:51:17;;;;;;;12.85;7.32;;;;;12.10;102051.00;;;;5023144;28;20200;-80
2022/01/10 11:53:46;;;;;;;14.77;8.80;;;;;12.10;102054.00;;;;5011075;28;20201;-79
2022/01/10 11:56:26;;;;;;;16.08;7.95;;;;;12.00;102048.00;;;;5011897;28;20201;-80
2022/01/10 11:59:23;;;;;;;14.02;9.13;;;;;12.00;102059.00;;;;5012852;28;20200;-80
2022/01/10 12:01:56;;;;;;;10.73;7.38;;;;;12.10;102066.00;;;;5017683;28;20235;-81
2022/01/10 12:04:24;;;;;;;11.27;7.10;;;;;12.20;102063.00;;;;5012284;28;20283;-81
2022/01/10 12:06:52;;;;;;;11.13;8.20;;;;;12.20;102069.00;;;;5011130;28;20455;-82
2022/01/10 12:09:20;;;;;;;11.57;7.65;;;;;12.30;102069.00;;;;5023896;28;20231;-81
2022/01/10 12:11:52;;;;;;;10.40;8.15;;;;;12.30;102068.00;;;;5010598;28;20284;-82
2022/01/10 12:14:20;;;;;;;11.63;7.78;;;;;12.40;102081.00;;;;5009553;28;20197;-80
2022/01/10 12:16:48;;;;;;;12.13;8.73;;;;;12.40;102081.00;;;;5013422;28;20587;-82
2022/01/10 12:19:16;;;;;;;11.35;7.95;;;;;12.50;102083.00;;;;5011803;28;20228;-82
2022/01/10 12:21:43;;;;;;;11.85;7.78;;;;;12.50;102088.00;;;;5014628;28;20236;-81
2022/01/10 12:24:11;;;;;;;13.20;8.32;;;;;12.50;102089.00;;;;5019882;28;20208;-80